Time;durP1;ratioP1;P1;durP2;ratioP2;P2;SDS_P1;SDS_P2;PMS_P1;PMS_P2;Temp;Humidity;BMP_temperature;BMP_pressure;BME280_temperature;BME280_humidity;BME280_pressure;Samples;Min_cycle;Max_cycle;Signal;HPM_P1;HPM_P2
2021/06/13 00:02:17;;;;;;;;;;;;;;;21.20;60.13;99529.50;5093173;28;19912;-38
2021/06/13 00:04:43;;;;;;;;;;;;;;;21.34;59.52;99519.66;5093157;28;19912;-37
2021/06/13 00:07:08;;;;;;;;;;;;;;;21.39;59.38;99522.34;5093188;28;20391;-37
2021/06/13 00:09:33;;;;;;;;;;;;;;;21.43;59.32;99523.38;5093018;28;19912;-37
2021/06/13 00:11:58;;;;;;;;;;;;;;;21.49;59.52;99521.50;5093214;28;19916;-38
2021/06/13 00:14:24;;;;;;;;;;;;;;;21.20;59.53;99515.97;5093287;28;20366;-37
2021/06/13 00:16:49;;;;;;;;;;;;;;;21.07;59.86;99512.78;5092760;28;20266;-37
2021/06/13 00:19:15;;;;;;;;;;;;;;;21.17;59.99;99521.94;5092551;28;19920;-38
2021/06/13 00:21:40;;;;;;;;;;;;;;;21.01;61.47;99522.00;5098947;28;19926;-38
2021/06/13 00:24:06;;;;;;;;;;;;;;;21.20;59.40;99524.09;5113004;28;19919;-38
2021/06/13 00:26:31;;;;;;;;;;;;;;;21.26;59.45;99523.75;5113001;28;20006;-38
2021/06/13 00:28:56;;;;;;;;;;;;;;;21.50;58.41;99517.72;5112798;28;19962;-35
2021/06/13 00:31:21;;;;;;;;;;;;;;;21.55;58.22;99508.72;5095524;28;19912;-37
2021/06/13 00:33:47;;;;;;;;;;;;;;;21.51;58.33;99513.91;5092624;28;19912;-38
2021/06/13 00:36:12;;;;;;;;;;;;;;;21.53;58.05;99510.91;5092153;28;19919;-38
2021/06/13 00:38:37;;;;;;;;;;;;;;;21.53;58.34;99513.63;5092168;28;19916;-37
2021/06/13 00:41:03;;;;;;;;;;;;;;;21.54;58.16;99509.84;5092493;28;19947;-37
2021/06/13 00:43:28;;;;;;;;;;;;;;;21.60;57.77;99506.00;5092665;28;20387;-37
2021/06/13 00:45:53;;;;;;;;;;;;;;;21.57;58.01;99503.84;5092336;28;20284;-37
2021/06/13 00:48:19;;;;;;;;;;;;;;;21.43;58.00;99515.28;5091022;28;20011;-37
2021/06/13 00:50:44;;;;;;;;;;;;;;;21.46;58.30;99512.03;5092297;28;20261;-37
2021/06/13 00:53:09;;;;;;;;;;;;;;;21.14;58.90;99477.31;5092193;28;20004;-37
2021/06/13 00:55:36;;;;;;;;;;;;;;;21.28;58.47;99497.25;5092180;28;19970;-37
2021/06/13 00:58:01;;;;;;;;;;;;;;;21.29;58.30;99506.97;5091052;28;20287;-37
2021/06/13 01:00:27;;;;;;;;;;;;;;;21.22;59.08;99501.06;5090614;28;20002;-37
2021/06/13 01:02:53;;;;;;;;;;;;;;;20.99;59.14;99472.00;5092073;28;20324;-37
2021/06/13 01:05:18;;;;;;;;;;;;;;;21.05;58.73;99492.50;5092136;28;19923;-37
2021/06/13 01:07:43;;;;;;;;;;;;;;;21.15;58.89;99495.19;5091910;28;19919;-37
2021/06/13 01:10:13;;;;;;;;;;;;;;;21.16;58.92;99488.66;5091957;28;19955;-37
2021/06/13 01:12:43;;;;;;;;;;;;;;;20.53;60.15;99496.50;5091728;28;19962;-37
2021/06/13 01:15:11;;;;;;;;;;;;;;;20.76;60.17;99492.38;5092025;28;20312;-37
2021/06/13 01:17:36;;;;;;;;;;;;;;;20.76;59.50;99493.19;5092200;28;20285;-37
2021/06/13 01:20:07;;;;;;;;;;;;;;;20.89;59.24;99489.09;5091171;28;20374;-37
2021/06/13 01:22:43;;;;;;;;;;;;;;;20.92;59.18;99490.41;5091312;28;19921;-37
2021/06/13 01:25:27;;;;;;;;;;;;;;;20.80;58.88;99488.03;5090016;28;19912;-37
2021/06/13 01:28:07;;;;;;;;;;;;;;;20.36;59.65;99492.22;5091373;28;20399;-38
2021/06/13 01:30:33;;;;;;;;;;;;;;;20.45;59.43;99487.88;5090067;28;20364;-38
2021/06/13 01:32:59;;;;;;;;;;;;;;;20.58;59.19;99483.78;5089853;28;19919;-37
2021/06/13 01:35:25;;;;;;;;;;;;;;;20.70;59.19;99486.19;5091538;28;20323;-37
2021/06/13 01:37:51;;;;;;;;;;;;;;;20.68;59.00;99477.56;5091390;28;19923;-37
2021/06/13 01:40:16;;;;;;;;;;;;;;;20.77;58.93;99484.00;5090431;28;19919;-38
2021/06/13 01:42:41;;;;;;;;;;;;;;;20.67;58.66;99478.63;5090149;28;20023;-37
2021/06/13 01:45:08;;;;;;;;;;;;;;;20.08;59.23;99472.81;5090005;28;19926;-37
2021/06/13 01:47:36;;;;;;;;;;;;;;;20.30;59.12;99471.69;5091081;28;19961;-38
2021/06/13 01:50:03;;;;;;;;;;;;;;;20.26;59.09;99465.22;5091136;28;20313;-38
2021/06/13 01:52:28;;;;;;;;;;;;;;;20.37;59.03;99474.94;5091184;28;19919;-37
2021/06/13 01:54:54;;;;;;;;;;;;;;;20.62;57.84;99468.66;5089463;28;19912;-37
2021/06/13 01:57:19;;;;;;;;;;;;;;;20.65;57.90;99470.78;5090166;28;19938;-38
2021/06/13 01:59:45;;;;;;;;;;;;;;;20.07;59.54;99470.41;5089559;28;20367;-38
2021/06/13 02:02:11;;;;;;;;;;;;;;;20.25;58.87;99471.69;5089290;28;19923;-37
2021/06/13 02:04:36;;;;;;;;;;;;;;;20.20;58.72;99467.13;5090660;28;19985;-37
2021/06/13 02:07:03;;;;;;;;;;;;;;;20.38;58.46;99471.13;5090765;28;20299;-38
2021/06/13 02:09:28;;;;;;;;;;;;;;;20.19;58.63;99467.41;5090882;28;19994;-37
2021/06/13 02:11:54;;;;;;;;;;;;;;;20.21;58.58;99471.44;5090984;28;20006;-37
2021/06/13 02:14:23;;;;;;;;;;;;;;;20.36;57.82;99464.38;5089636;28;19920;-36
2021/06/13 02:16:48;;;;;;;;;;;;;;;20.37;57.52;99466.81;5090937;28;19934;-37
2021/06/13 02:19:16;;;;;;;;;;;;;;;20.24;58.19;99470.09;5089227;28;19920;-37
2021/06/13 02:21:42;;;;;;;;;;;;;;;20.25;57.04;99464.41;5097386;28;19912;-38
2021/06/13 02:24:08;;;;;;;;;;;;;;;20.34;57.29;99466.56;5109911;28;19931;-38
2021/06/13 02:26:34;;;;;;;;;;;;;;;20.32;57.41;99461.41;5110997;28;19911;-37
2021/06/13 02:28:59;;;;;;;;;;;;;;;20.47;56.68;99457.88;5111252;28;20310;-37
2021/06/13 02:31:25;;;;;;;;;;;;;;;20.51;56.59;99456.22;5075528;28;20351;-38
2021/06/13 02:33:50;;;;;;;;;;;;;;;20.51;57.07;99453.53;5089577;28;19962;-37
2021/06/13 02:36:16;;;;;;;;;;;;;;;20.51;56.58;99453.53;5090643;28;19989;-36
2021/06/13 02:38:41;;;;;;;;;;;;;;;20.65;56.97;99457.25;5090585;28;20352;-37
2021/06/13 02:41:06;;;;;;;;;;;;;;;20.75;56.75;99455.59;5090770;28;19951;-37
2021/06/13 02:43:32;;;;;;;;;;;;;;;20.79;55.93;99459.38;5090968;28;19943;-37
2021/06/13 02:45:57;;;;;;;;;;;;;;;20.65;56.34;99454.56;5090870;28;20314;-38
2021/06/13 02:48:23;;;;;;;;;;;;;;;20.63;56.97;99455.94;5090559;28;19919;-37
2021/06/13 02:50:48;;;;;;;;;;;;;;;20.67;56.11;99455.09;5090612;28;19912;-37
2021/06/13 02:53:26;;;;;;;;;;;;;;;20.66;56.32;99449.97;5090483;28;19999;-37
2021/06/13 02:55:51;;;;;;;;;;;;;;;20.73;56.40;99449.66;5090249;28;19912;-38
2021/06/13 02:58:28;;;;;;;;;;;;;;;20.46;56.79;99448.13;5090464;28;19926;-38
2021/06/13 03:00:54;;;;;;;;;;;;;;;20.59;56.29;99447.53;5088915;28;19912;-38
2021/06/13 03:03:20;;;;;;;;;;;;;;;19.86;57.78;99440.72;5090659;28;19916;-37
2021/06/13 03:05:45;;;;;;;;;;;;;;;19.84;58.18;99442.09;5090393;28;19919;-37
2021/06/13 03:08:11;;;;;;;;;;;;;;;19.78;57.93;99440.44;5090811;28;19916;-37
2021/06/13 03:10:36;;;;;;;;;;;;;;;19.87;57.69;99434.22;5090658;28;20360;-38
2021/06/13 03:13:02;;;;;;;;;;;;;;;20.09;57.17;99433.91;5090667;28;19916;-38
2021/06/13 03:15:27;;;;;;;;;;;;;;;20.37;55.78;99428.16;5089133;28;20003;-37
2021/06/13 03:17:52;;;;;;;;;;;;;;;20.20;56.18;99426.59;5089031;28;19912;-38
2021/06/13 03:20:18;;;;;;;;;;;;;;;20.33;55.90;99419.00;5089158;28;19951;-38
2021/06/13 03:22:43;;;;;;;;;;;;;;;20.48;55.65;99427.84;5091545;28;19935;-38
2021/06/13 03:25:08;;;;;;;;;;;;;;;20.63;55.14;99428.91;5092675;28;19916;-37
2021/06/13 03:27:34;;;;;;;;;;;;;;;20.60;55.38;99422.16;5092704;28;19912;-37
2021/06/13 03:29:59;;;;;;;;;;;;;;;20.67;54.90;99428.06;5093355;28;19927;-37
2021/06/13 03:32:24;;;;;;;;;;;;;;;20.82;55.47;99420.97;5092028;28;19912;-36
2021/06/13 03:34:50;;;;;;;;;;;;;;;20.92;54.90;99420.09;5092168;28;19912;-38
2021/06/13 03:37:15;;;;;;;;;;;;;;;20.90;55.19;99425.78;5093374;28;19912;-38
2021/06/13 03:39:41;;;;;;;;;;;;;;;21.24;54.13;99417.72;5091972;28;20014;-37
2021/06/13 03:42:06;;;;;;;;;;;;;;;21.52;53.07;99425.41;5093640;28;20377;-36
2021/06/13 03:44:32;;;;;;;;;;;;;;;21.82;52.44;99422.41;5092209;28;20405;-37
2021/06/13 03:46:57;;;;;;;;;;;;;;;21.80;51.69;99421.88;5092098;28;19912;-37
2021/06/13 03:49:22;;;;;;;;;;;;;;;22.15;51.43;99416.38;5093201;28;19923;-38
2021/06/13 03:51:47;;;;;;;;;;;;;;;22.37;48.92;99415.88;5091544;28;20032;-37
2021/06/13 03:54:13;;;;;;;;;;;;;;;22.28;49.66;99410.31;5093020;28;19912;-38
2021/06/13 03:56:45;;;;;;;;;;;;;;;22.86;48.20;99411.97;5092854;28;19911;-38
2021/06/13 03:59:10;;;;;;;;;;;;;;;23.28;47.64;99418.44;5091239;28;20367;-38
2021/06/13 04:01:37;;;;;;;;;;;;;;;23.72;46.73;99425.34;5091505;28;19945;-37
2021/06/13 04:04:02;;;;;;;;;;;;;;;23.94;45.54;99413.81;5092366;28;20339;-38
2021/06/13 04:06:27;;;;;;;;;;;;;;;23.93;45.11;99412.22;5090508;28;19975;-38
2021/06/13 04:08:54;;;;;;;;;;;;;;;24.20;45.05;99410.63;5089991;28;19916;-37
2021/06/13 04:11:20;;;;;;;;;;;;;;;24.71;43.97;99415.03;5091595;28;19922;-37
2021/06/13 04:13:45;;;;;;;;;;;;;;;25.14;43.09;99419.25;5091945;28;19977;-37
2021/06/13 04:16:10;;;;;;;;;;;;;;;25.36;42.27;99421.22;5090750;28;19928;-37
2021/06/13 04:18:36;;;;;;;;;;;;;;;25.56;41.67;99417.97;5091559;28;19919;-37
2021/06/13 04:21:02;;;;;;;;;;;;;;;25.74;41.04;99410.72;5092923;28;19912;-37
2021/06/13 04:23:28;;;;;;;;;;;;;;;25.46;42.01;99420.94;5108839;28;20283;-37
2021/06/13 04:25:55;;;;;;;;;;;;;;;25.73;41.67;99417.25;5075074;28;20010;-37
2021/06/13 04:28:20;;;;;;;;;;;;;;;26.25;40.22;99421.38;5091793;28;19916;-38
2021/06/13 04:31:11;;;;;;;;;;;;;;;26.50;39.84;99422.56;5091646;28;19919;-37
2021/06/13 04:33:36;;;;;;;;;;;;;;;26.91;39.23;99426.84;5085322;28;19912;-37
2021/06/13 04:36:02;;;;;;;;;;;;;;;27.39;38.28;99425.09;5091788;28;20003;-38
2021/06/13 04:38:27;;;;;;;;;;;;;;;27.39;37.75;99427.81;5091561;28;19916;-37
2021/06/13 04:40:52;;;;;;;;;;;;;;;27.52;37.83;99439.69;5091530;28;19912;-37
2021/06/13 04:43:18;;;;;;;;;;;;;;;27.54;38.05;99443.69;5091839;28;20376;-37
2021/06/13 04:45:43;;;;;;;;;;;;;;;27.95;37.21;99439.63;5091622;28;20008;-37
2021/06/13 04:48:08;;;;;;;;;;;;;;;28.02;36.59;99437.16;5091907;28;19912;-38
2021/06/13 04:50:34;;;;;;;;;;;;;;;28.11;36.43;99439.88;5091487;28;19975;-37
2021/06/13 04:52:59;;;;;;;;;;;;;;;27.85;36.79;99435.28;5091739;28;20007;-37
2021/06/13 04:55:29;;;;;;;;;;;;;;;27.79;36.56;99430.31;5091368;28;19912;-37
2021/06/13 04:58:00;;;;;;;;;;;;;;;27.94;36.00;99437.22;5091232;28;19944;-38
2021/06/13 05:00:26;;;;;;;;;;;;;;;28.25;35.77;99420.50;5091101;28;19969;-38
2021/06/13 05:02:51;;;;;;;;;;;;;;;28.41;36.21;99421.53;5090872;28;19916;-39
2021/06/13 05:05:16;;;;;;;;;;;;;;;29.01;35.16;99416.81;5090965;28;19912;-39
2021/06/13 05:07:42;;;;;;;;;;;;;;;28.95;36.80;99422.81;5091219;28;19912;-37
2021/06/13 05:10:08;;;;;;;;;;;;;;;29.66;35.46;99426.56;5089921;28;19959;-38
2021/06/13 05:12:43;;;;;;;;;;;;;;;30.26;34.79;99422.31;5091068;28;19972;-37
2021/06/13 05:15:09;;;;;;;;;;;;;;;29.98;34.10;99420.22;5091118;28;19924;-38
2021/06/13 05:17:34;;;;;;;;;;;;;;;30.07;34.47;99420.13;5091151;28;19919;-39
2021/06/13 05:19:59;;;;;;;;;;;;;;;29.84;34.61;99421.72;5090665;28;19924;-37
2021/06/13 05:22:24;;;;;;;;;;;;;;;30.21;36.40;99423.34;5103802;28;20034;-37
2021/06/13 05:24:50;;;;;;;;;;;;;;;30.29;33.95;99424.38;5111478;28;19919;-37
2021/06/13 05:27:15;;;;;;;;;;;;;;;29.89;36.55;99422.31;5111150;28;19947;-38
2021/06/13 05:29:40;;;;;;;;;;;;;;;29.04;35.23;99420.81;5107894;28;19912;-48
2021/06/13 05:32:06;;;;;;;;;;;;;;;29.99;34.39;99419.09;5090312;28;19997;-47
2021/06/13 05:34:31;;;;;;;;;;;;;;;30.46;33.95;99419.81;5090093;28;20303;-47
2021/06/13 05:36:56;;;;;;;;;;;;;;;30.28;33.60;99420.03;5089733;28;20305;-46
2021/06/13 05:39:22;;;;;;;;;;;;;;;31.17;32.93;99421.97;5090242;28;19981;-50
2021/06/13 05:41:47;;;;;;;;;;;;;;;31.87;32.08;99423.47;5090409;28;19912;-48
2021/06/13 05:44:12;;;;;;;;;;;;;;;31.83;30.99;99424.50;5089755;28;19995;-48
2021/06/13 05:46:38;;;;;;;;;;;;;;;31.89;30.67;99421.16;5090064;28;19918;-49
2021/06/13 05:49:03;;;;;;;;;;;;;;;32.39;30.60;99418.81;5090262;28;20264;-47
2021/06/13 05:51:28;;;;;;;;;;;;;;;32.47;30.63;99419.78;5090099;28;19912;-47
2021/06/13 05:53:53;;;;;;;;;;;;;;;32.44;29.67;99420.50;5090127;28;19912;-48
2021/06/13 05:56:19;;;;;;;;;;;;;;;31.83;30.75;99421.75;5090331;28;19920;-47
2021/06/13 05:58:44;;;;;;;;;;;;;;;32.37;29.58;99417.56;5089704;28;20053;-47
2021/06/13 06:01:09;;;;;;;;;;;;;;;32.65;28.75;99411.94;5089843;28;19916;-48
2021/06/13 06:03:35;;;;;;;;;;;;;;;32.25;29.44;99412.97;5090003;28;19919;-51
2021/06/13 06:06:00;;;;;;;;;;;;;;;32.75;29.37;99410.56;5089631;28;19944;-47
2021/06/13 06:08:27;;;;;;;;;;;;;;;32.22;29.73;99405.47;5089444;28;20356;-48
2021/06/13 06:10:52;;;;;;;;;;;;;;;31.83;29.56;99410.75;5089637;28;19978;-50
2021/06/13 06:13:17;;;;;;;;;;;;;;;31.62;29.43;99414.53;5089934;28;20356;-49
2021/06/13 06:15:43;;;;;;;;;;;;;;;32.17;30.02;99408.47;5089999;28;19969;-47
2021/06/13 06:18:08;;;;;;;;;;;;;;;31.94;29.99;99406.31;5089530;28;19958;-47
2021/06/13 06:20:33;;;;;;;;;;;;;;;31.68;30.25;99407.66;5089544;28;19916;-49
2021/06/13 06:22:59;;;;;;;;;;;;;;;32.64;29.34;99399.34;5089466;28;20307;-47
2021/06/13 06:25:24;;;;;;;;;;;;;;;33.00;27.97;99395.38;5089783;28;19912;-48
2021/06/13 06:27:50;;;;;;;;;;;;;;;32.60;28.27;99403.97;5089665;28;19920;-47
2021/06/13 06:30:15;;;;;;;;;;;;;;;31.13;30.63;99401.00;5089353;28;20374;-47
2021/06/13 06:32:41;;;;;;;;;;;;;;;31.86;30.28;99399.84;5089536;28;19919;-47
2021/06/13 06:35:07;;;;;;;;;;;;;;;32.32;29.31;99391.13;5089778;28;20026;-47
2021/06/13 06:37:32;;;;;;;;;;;;;;;31.54;30.14;99394.31;5089511;28;20396;-48
2021/06/13 06:39:58;;;;;;;;;;;;;;;31.48;30.40;99395.72;5089563;28;19963;-46
2021/06/13 06:42:23;;;;;;;;;;;;;;;32.81;29.50;99387.13;5089738;28;19916;-48
2021/06/13 06:44:48;;;;;;;;;;;;;;;33.13;28.76;99387.78;5089286;28;19962;-50
2021/06/13 06:47:14;;;;;;;;;;;;;;;33.83;27.70;99386.72;5089214;28;19912;-47
2021/06/13 06:49:39;;;;;;;;;;;;;;;33.46;27.70;99384.47;5089474;28;20241;-47
2021/06/13 06:52:06;;;;;;;;;;;;;;;33.34;27.91;99378.31;5089496;28;19912;-51
2021/06/13 06:54:31;;;;;;;;;;;;;;;33.63;27.31;99380.47;5089489;28;20023;-49
2021/06/13 06:56:56;;;;;;;;;;;;;;;32.72;28.82;99370.78;5094145;28;20363;-48
2021/06/13 06:59:22;;;;;;;;;;;;;;;32.50;28.79;99364.81;5104755;28;19932;-50
2021/06/13 07:01:47;;;;;;;;;;;;;;;32.64;28.88;99360.78;5090741;28;19924;-47
2021/06/13 07:04:12;;;;;;;;;;;;;;;32.90;27.79;99363.69;5091589;28;19931;-49
2021/06/13 07:06:38;;;;;;;;;;;;;;;31.94;29.11;99359.56;5095396;28;19959;-48
2021/06/13 07:09:03;;;;;;;;;;;;;;;31.41;30.15;99368.00;5096531;28;19930;-47
2021/06/13 07:11:29;;;;;;;;;;;;;;;31.61;30.68;99357.97;5092447;28;19924;-50
2021/06/13 07:13:54;;;;;;;;;;;;;;;31.80;30.16;99360.00;5100675;28;19916;-46
2021/06/13 07:16:19;;;;;;;;;;;;;;;32.89;28.71;99355.78;5093281;28;19981;-49
2021/06/13 07:18:45;;;;;;;;;;;;;;;33.01;28.79;99352.88;5092513;28;19920;-49
2021/06/13 07:21:10;;;;;;;;;;;;;;;32.70;29.94;99342.81;5095265;28;19916;-49
2021/06/13 07:23:35;;;;;;;;;;;;;;;32.17;30.04;99336.91;5092556;27;20241;-50
2021/06/13 07:26:01;;;;;;;;;;;;;;;32.98;29.38;99339.84;5092783;28;19912;-50
2021/06/13 07:28:26;;;;;;;;;;;;;;;32.65;29.64;99338.41;5091323;28;19991;-48
2021/06/13 07:30:51;;;;;;;;;;;;;;;31.78;29.97;99326.56;5092743;28;19912;-49
2021/06/13 07:33:17;;;;;;;;;;;;;;;31.32;31.59;99328.91;5092673;28;19912;-48
2021/06/13 07:35:42;;;;;;;;;;;;;;;30.99;31.69;99316.25;5092767;28;20347;-47
2021/06/13 07:38:07;;;;;;;;;;;;;;;31.45;31.57;99321.38;5092468;28;19912;-47
2021/06/13 07:40:33;;;;;;;;;;;;;;;31.37;31.70;99323.16;5092817;28;19912;-40
2021/06/13 07:42:58;;;;;;;;;;;;;;;31.26;31.70;99317.38;5091934;28;19916;-38
2021/06/13 07:45:24;;;;;;;;;;;;;;;31.51;32.01;99315.31;5091839;28;20021;-38
2021/06/13 07:47:49;;;;;;;;;;;;;;;31.24;31.83;99316.91;5090881;28;19919;-38
2021/06/13 07:50:15;;;;;;;;;;;;;;;30.91;33.13;99319.97;5092628;28;20006;-37
2021/06/13 07:52:40;;;;;;;;;;;;;;;31.52;31.78;99319.63;5092415;28;19957;-38
2021/06/13 07:55:05;;;;;;;;;;;;;;;32.40;30.71;99307.53;5092702;28;19940;-38
2021/06/13 07:57:31;;;;;;;;;;;;;;;32.98;29.96;99304.03;5090961;28;20303;-38
2021/06/13 07:59:56;;;;;;;;;;;;;;;33.08;30.08;99302.63;5092120;28;19939;-39
2021/06/13 08:02:21;;;;;;;;;;;;;;;33.64;29.47;99296.56;5092474;28;20318;-38
2021/06/13 08:04:52;;;;;;;;;;;;;;;34.36;29.60;99302.34;5092401;28;19970;-38
2021/06/13 08:07:17;;;;;;;;;;;;;;;33.93;29.21;99307.22;5092124;28;19946;-38
2021/06/13 08:09:43;;;;;;;;;;;;;;;33.16;29.83;99300.81;5092163;28;19922;-38
2021/06/13 08:12:09;;;;;;;;;;;;;;;33.09;30.26;99294.00;5092380;28;20006;-38
2021/06/13 08:14:34;;;;;;;;;;;;;;;33.10;30.11;99295.59;5092127;28;19916;-38
2021/06/13 08:16:59;;;;;;;;;;;;;;;33.14;29.90;99292.91;5091963;28;20129;-38
2021/06/13 08:19:25;;;;;;;;;;;;;;;33.22;30.14;99288.31;5092104;28;19943;-39
2021/06/13 08:21:50;;;;;;;;;;;;;;;33.10;30.55;99275.50;5092047;28;20114;-39
2021/06/13 08:24:15;;;;;;;;;;;;;;;33.89;28.54;99276.81;5091634;28;19912;-39
2021/06/13 08:26:41;;;;;;;;;;;;;;;34.12;28.91;99276.75;5091559;28;19932;-38
2021/06/13 08:29:06;;;;;;;;;;;;;;;34.25;27.85;99275.41;5091682;28;19912;-38
2021/06/13 08:31:31;;;;;;;;;;;;;;;34.75;28.07;99278.00;5091888;28;20092;-38
2021/06/13 08:33:57;;;;;;;;;;;;;;;33.93;28.36;99268.59;5090803;28;20448;-49
2021/06/13 08:36:22;;;;;;;;;;;;;;;34.21;27.83;99266.25;5091667;28;19999;-48
2021/06/13 08:38:49;;;;;;;;;;;;;;;33.94;27.91;99265.47;5091710;28;20395;-48
2021/06/13 08:41:15;;;;;;;;;;;;;;;33.06;29.59;99272.66;5091645;28;20379;-48
2021/06/13 08:43:40;;;;;;;;;;;;;;;32.79;30.12;99260.75;5091533;28;20085;-47
2021/06/13 08:46:06;;;;;;;;;;;;;;;32.38;30.64;99257.56;5091631;28;19935;-47
2021/06/13 08:48:31;;;;;;;;;;;;;;;32.64;29.83;99243.16;5090464;28;20026;-49
2021/06/13 08:50:57;;;;;;;;;;;;;;;32.44;30.40;99253.34;5091675;28;19985;-48
2021/06/13 08:53:22;;;;;;;;;;;;;;;32.64;30.17;99239.63;5091286;28;19916;-47
2021/06/13 08:55:47;;;;;;;;;;;;;;;32.75;30.12;99239.81;5091234;28;19912;-47
2021/06/13 08:58:14;;;;;;;;;;;;;;;32.56;30.34;99238.66;5090841;28;19919;-47
2021/06/13 09:00:41;;;;;;;;;;;;;;;32.05;30.66;99234.06;5091264;28;20348;-50
2021/06/13 09:03:06;;;;;;;;;;;;;;;32.92;29.56;99234.63;5091221;28;20319;-48
2021/06/13 09:05:31;;;;;;;;;;;;;;;33.55;28.87;99237.25;5091016;28;19912;-47
2021/06/13 09:07:58;;;;;;;;;;;;;;;33.23;29.01;99240.31;5091259;28;20275;-47
2021/06/13 09:10:25;;;;;;;;;;;;;;;33.04;28.61;99243.91;5090987;28;19912;-49
2021/06/13 09:13:09;;;;;;;;;;;;;;;32.45;28.72;99243.94;5089827;28;19920;-50
2021/06/13 09:15:36;;;;;;;;;;;;;;;32.83;28.86;99242.34;5090729;28;20379;-48
2021/06/13 09:18:01;;;;;;;;;;;;;;;31.71;29.37;99232.88;5090815;28;20014;-47
2021/06/13 09:20:27;;;;;;;;;;;;;;;31.81;30.21;99243.31;5090101;28;19917;-47
2021/06/13 09:23:12;;;;;;;;;;;;;;;32.52;29.41;99238.59;5105835;28;20229;-45
2021/06/13 09:25:40;;;;;;;;;;;;;;;32.61;30.12;99241.13;5111080;28;19919;-48
2021/06/13 09:28:09;;;;;;;;;;;;;;;32.55;29.13;99231.53;5111284;28;19911;-47
2021/06/13 09:30:35;;;;;;;;;;;;;;;32.32;30.03;99240.53;5110933;28;19919;-47
2021/06/13 09:33:05;;;;;;;;;;;;;;;32.32;30.96;99229.53;5110924;28;20329;-47
2021/06/13 09:35:30;;;;;;;;;;;;;;;32.71;30.48;99237.78;5110900;28;20081;-49
2021/06/13 09:38:03;;;;;;;;;;;;;;;32.18;29.99;99229.25;5110925;28;20335;-47
2021/06/13 09:40:28;;;;;;;;;;;;;;;32.17;30.22;99222.13;5110819;28;19916;-47
2021/06/13 09:42:53;;;;;;;;;;;;;;;31.87;30.79;99219.09;5110834;28;19911;-47
2021/06/13 09:45:19;;;;;;;;;;;;;;;30.94;32.83;99218.44;5110988;28;19911;-45
2021/06/13 09:47:44;;;;;;;;;;;;;;;31.03;32.52;99210.00;5110693;28;19982;-47
2021/06/13 09:50:09;;;;;;;;;;;;;;;31.65;31.98;99201.31;5109327;28;20467;-47
2021/06/13 09:52:34;;;;;;;;;;;;;;;32.23;31.03;99198.66;5110592;28;19995;-47
2021/06/13 09:55:09;;;;;;;;;;;;;;;32.04;31.35;99195.91;5110531;28;20318;-47
2021/06/13 09:57:37;;;;;;;;;;;;;;;32.07;31.56;99192.44;5110377;28;19951;-49
2021/06/13 10:00:21;;;;;;;;;;;;;;;31.18;31.60;99198.22;5109173;28;20398;-46
2021/06/13 10:02:46;;;;;;;;;;;;;;;31.66;31.12;99186.41;5110809;28;19919;-47
2021/06/13 10:05:12;;;;;;;;;;;;;;;31.63;30.68;99198.13;5110276;28;19915;-47
2021/06/13 10:07:37;;;;;;;;;;;;;;;31.44;31.14;99196.88;5110454;28;19977;-48
2021/06/13 10:10:03;;;;;;;;;;;;;;;31.89;30.07;99200.28;5110442;28;19911;-49
2021/06/13 10:12:28;;;;;;;;;;;;;;;31.75;30.93;99195.25;5104637;28;20298;-48
2021/06/13 10:14:53;;;;;;;;;;;;;;;31.28;32.39;99199.66;5088127;28;19916;-50
2021/06/13 10:17:29;;;;;;;;;;;;;;;31.30;31.81;99199.28;5088544;28;19908;-47
2021/06/13 10:19:54;;;;;;;;;;;;;;;31.71;31.86;99183.38;5088981;28;19950;-49
2021/06/13 10:22:19;;;;;;;;;;;;;;;32.15;30.75;99188.66;5101642;28;19916;-48
2021/06/13 10:24:47;;;;;;;;;;;;;;;32.22;30.32;99182.53;5110395;28;19969;-48
2021/06/13 10:27:14;;;;;;;;;;;;;;;32.82;29.45;99171.06;5110318;28;19998;-48
2021/06/13 10:29:40;;;;;;;;;;;;;;;32.30;29.49;99174.03;5110018;28;19912;-47
2021/06/13 10:32:06;;;;;;;;;;;;;;;31.55;29.78;99170.47;5112976;28;19911;-48
2021/06/13 10:34:31;;;;;;;;;;;;;;;32.33;29.74;99167.03;5113969;28;19922;-47
2021/06/13 10:36:58;;;;;;;;;;;;;;;32.98;29.00;99168.22;5114249;28;20383;-49
2021/06/13 10:39:24;;;;;;;;;;;;;;;32.00;30.65;99170.25;5114118;28;20300;-47
2021/06/13 10:41:49;;;;;;;;;;;;;;;31.90;31.05;99166.91;5112585;28;20010;-38
2021/06/13 10:44:15;;;;;;;;;;;;;;;30.99;32.31;99163.22;5113914;28;20175;-38
2021/06/13 10:46:42;;;;;;;;;;;;;;;30.82;31.11;99188.25;5103561;28;19971;-38
2021/06/13 10:49:10;;;;;;;;;;;;;;;30.35;34.03;99203.50;5095680;28;20462;-38
2021/06/13 10:51:36;;;;;;;;;;;;;;;30.63;34.10;99219.13;5093969;28;19992;-38
2021/06/13 10:54:20;;;;;;;;;;;;;;;30.46;35.49;99227.69;5104998;28;20302;-38
2021/06/13 10:56:46;;;;;;;;;;;;;;;29.84;36.70;99219.59;5097086;28;19916;-38
2021/06/13 10:59:13;;;;;;;;;;;;;;;29.70;37.74;99230.09;5113520;28;19985;-38
2021/06/13 11:01:39;;;;;;;;;;;;;;;29.57;37.67;99221.88;5114058;28;20014;-37
2021/06/13 11:04:07;;;;;;;;;;;;;;;29.55;37.87;99223.34;5100523;28;19978;-38
2021/06/13 11:06:37;;;;;;;;;;;;;;;29.16;38.70;99231.91;5101767;28;19947;-38
2021/06/13 11:09:02;;;;;;;;;;;;;;;28.53;39.18;99232.03;5095743;28;20459;-38
2021/06/13 11:11:34;;;;;;;;;;;;;;;28.10;40.41;99230.41;5103144;28;19912;-37
2021/06/13 11:14:18;;;;;;;;;;;;;;;27.76;40.95;99224.03;5092816;28;19912;-38
2021/06/13 11:16:43;;;;;;;;;;;;;;;28.08;40.63;99228.03;5110255;28;20304;-37
2021/06/13 11:19:25;;;;;;;;;;;;;;;28.18;40.30;99215.06;5096804;28;20359;-37
2021/06/13 11:22:07;;;;;;;;;;;;;;;27.75;40.93;99205.22;5105540;28;19923;-38
2021/06/13 11:24:48;;;;;;;;;;;;;;;27.43;41.57;99211.00;5107447;28;20400;-38
2021/06/13 11:27:13;;;;;;;;;;;;;;;27.32;42.48;99212.50;5081810;28;19922;-37
2021/06/13 11:29:52;;;;;;;;;;;;;;;28.62;40.70;99221.03;5113806;28;19923;-38
2021/06/13 11:32:17;;;;;;;;;;;;;;;29.55;38.75;99228.81;5099915;28;19918;-38
2021/06/13 11:34:45;;;;;;;;;;;;;;;30.21;37.32;99228.56;5093157;28;19912;-37
2021/06/13 11:37:23;;;;;;;;;;;;;;;30.53;37.66;99236.13;5092862;28;20479;-37
2021/06/13 11:39:55;;;;;;;;;;;;;;;30.33;37.24;99246.13;5093022;28;19920;-47
2021/06/13 11:42:20;;;;;;;;;;;;;;;30.58;36.74;99249.59;5089540;28;19912;-51
2021/06/13 11:44:46;;;;;;;;;;;;;;;29.41;37.81;99240.13;5092083;28;19927;-49
2021/06/13 11:47:32;;;;;;;;;;;;;;;27.51;40.54;99253.06;5092444;28;19916;-48
2021/06/13 11:49:58;;;;;;;;;;;;;;;26.33;42.86;99257.78;5092412;28;19913;-51
2021/06/13 11:52:45;;;;;;;;;;;;;;;26.52;43.12;99264.81;5092599;28;19923;-51
2021/06/13 11:55:11;;;;;;;;;;;;;;;26.14;44.32;99270.88;5092455;28;20441;-37
2021/06/13 11:57:36;;;;;;;;;;;;;;;26.27;44.34;99274.59;5092735;28;20391;-38
2021/06/13 12:00:11;;;;;;;;;;;;;;;26.11;44.56;99282.44;5092281;28;20464;-38
2021/06/13 12:02:37;;;;;;;;;;;;;;;26.19;44.70;99284.38;5091283;28;20241;-37
2021/06/13 12:05:03;;;;;;;;;;;;;;;25.87;45.54;99282.81;5091211;28;19923;-37
2021/06/13 12:07:29;;;;;;;;;;;;;;;25.78;46.98;99290.16;5092872;28;19912;-37
2021/06/13 12:09:54;;;;;;;;;;;;;;;24.86;50.38;99296.06;5091099;28;20356;-38
2021/06/13 12:12:21;;;;;;;;;;;;;;;24.73;51.04;99304.00;5084820;28;20133;-38
2021/06/13 12:14:48;;;;;;;;;;;;;;;24.83;51.42;99315.72;5087317;28;20008;-38
2021/06/13 12:17:14;;;;;;;;;;;;;;;25.25;51.51;99324.56;5071489;28;19913;-36
2021/06/13 12:19:46;;;;;;;;;;;;;;;25.61;51.70;99320.88;5083402;28;19921;-39
2021/06/13 12:22:13;;;;;;;;;;;;;;;25.64;52.53;99329.22;5100934;28;19911;-37
2021/06/13 12:27:22;;;;;;;;;;;;;;;25.77;53.44;99332.19;5090646;28;19919;-39
2021/06/13 12:29:48;;;;;;;;;;;;;;;25.03;55.05;99325.34;5090124;28;20097;-39
2021/06/13 12:32:14;;;;;;;;;;;;;;;25.60;53.02;99320.06;5090836;28;20015;-38
2021/06/13 12:34:40;;;;;;;;;;;;;;;25.43;54.31;99318.06;5090852;28;20006;-39
2021/06/13 12:37:06;;;;;;;;;;;;;;;25.63;52.41;99311.28;5091049;28;20063;-38
2021/06/13 12:39:31;;;;;;;;;;;;;;;25.90;52.49;99317.63;5091031;28;19952;-38
2021/06/13 12:42:07;;;;;;;;;;;;;;;25.67;52.95;99311.47;5091087;28;20405;-38
2021/06/13 12:44:32;;;;;;;;;;;;;;;25.75;52.70;99321.59;5091021;28;19912;-38
2021/06/13 12:46:57;;;;;;;;;;;;;;;25.65;54.08;99308.25;5090929;28;19919;-39
2021/06/13 12:49:23;;;;;;;;;;;;;;;25.66;54.13;99313.38;5090575;28;19916;-37